Time;durP1;ratioP1;P1;durP2;ratioP2;P2;SDS_P1;SDS_P2;PMS_P1;PMS_P2;Temp;Humidity;BMP_temperature;BMP_pressure;BME280_temperature;BME280_humidity;BME280_pressure;Samples;Min_cycle;Max_cycle;Signal;HPM_P1;HPM_P2
2024/04/19 07:32:03;;;;;;;6.10;1.30;;;;;;;7.74;80.55;99671.43;106958;1305;542824;-87
2024/04/19 07:36:20;;;;;;;6.30;1.70;;;;;;;7.79;80.25;99665.29;110439;1274;22279;-87
2024/04/19 07:40:12;;;;;;;10.30;1.70;;;;;;;7.85;80.20;99665.20;110231;1275;22209;-85
2024/04/19 07:43:56;;;;;;;5.20;1.60;;;;;;;7.87;79.68;99665.44;110254;1279;22153;-88
2024/04/19 07:47:57;;;;;;;4.40;1.30;;;;;;;7.84;79.55;99658.30;106547;1274;22197;-86
2024/04/19 07:51:53;;;;;;;5.00;1.40;;;;;;;7.82;79.39;99658.83;110341;1274;22401;-87
2024/04/19 07:56:07;;;;;;;5.70;1.40;;;;;;;7.81;77.85;99650.36;110782;1276;22521;-87
2024/04/19 07:59:43;;;;;;;6.00;1.40;;;;;;;7.80;77.08;99650.80;110680;1276;22119;-86
2024/04/19 08:06:33;;;;;;;3.60;1.00;;;;;;;7.77;76.78;99644.22;110885;1271;22223;-88
2024/04/19 08:13:43;;;;;;;5.60;1.10;;;;;;;7.84;76.63;99639.93;110720;1276;22195;-86
2024/04/19 08:18:15;;;;;;;4.90;1.10;;;;;;;7.93;76.17;99631.96;110795;1271;22133;-87
2024/04/19 08:22:21;;;;;;;3.90;1.00;;;;;;;8.04;76.45;99623.17;110933;1270;22923;-87
2024/04/19 08:29:50;;;;;;;5.80;1.10;;;;;;;8.38;76.35;99604.06;110841;1270;22193;-87
2024/04/19 08:33:47;;;;;;;8.30;1.00;;;;;;;8.54;75.70;99599.84;110919;1274;22337;-85
2024/04/19 08:38:15;;;;;;;6.10;1.30;;;;;;;8.69;74.98;99589.32;111021;1270;22165;-89
2024/04/19 08:42:24;;;;;;;7.00;1.50;;;;;;;8.86;74.95;99582.20;110659;1274;22129;-87
2024/04/19 08:46:32;;;;;;;4.00;1.20;;;;;;;9.00;74.61;99574.09;110580;1278;22125;-87
2024/04/19 08:50:17;;;;;;;6.10;1.30;;;;;;;9.16;74.57;99564.74;110899;1273;22371;-87
2024/04/19 08:54:15;;;;;;;4.70;1.30;;;;;;;9.34;73.33;99556.14;110999;1268;22246;-87
2024/04/19 08:57:51;;;;;;;4.70;1.40;;;;;;;9.52;73.07;99551.69;110873;1274;22177;-87
2024/04/19 09:01:21;;;;;;;6.30;1.30;;;;;;;9.65;73.15;99543.18;110647;1276;22849;-87
2024/04/19 09:05:01;;;;;;;4.40;1.20;;;;;;;9.80;71.52;99540.71;110862;1272;22153;-87
2024/04/19 09:08:48;;;;;;;5.40;1.20;;;;;;;9.95;72.00;99535.39;110593;1273;22167;-87
2024/04/19 09:13:14;;;;;;;5.60;1.50;;;;;;;10.11;70.25;99525.48;110514;1279;22313;-88
2024/04/19 09:17:20;;;;;;;5.20;1.40;;;;;;;10.25;70.18;99526.13;110604;1276;22376;-88
2024/04/19 09:20:33;;;;;;;5.00;1.50;;;;;;;10.40;70.54;99516.16;110704;1271;23338;-88
2024/04/19 09:25:09;;;;;;;4.30;1.20;;;;;;;10.61;69.07;99510.83;110736;1276;22921;-87
2024/04/19 09:29:14;;;;;;;3.90;1.30;;;;;;;10.69;67.39;99503.29;110931;1271;22268;-89
2024/04/19 09:33:05;;;;;;;4.30;1.10;;;;;;;10.69;66.31;99496.64;110871;1274;22212;-88
2024/04/19 09:40:37;;;;;;;5.50;1.40;;;;;;;10.80;65.66;99485.98;110970;1273;22276;-87
2024/04/19 09:44:22;;;;;;;6.10;1.30;;;;;;;10.84;65.08;99479.31;110878;1274;22278;-88
2024/04/19 09:48:19;;;;;;;4.70;1.20;;;;;;;10.90;63.29;99475.59;110754;1273;22214;-89
2024/04/19 09:52:07;;;;;;;5.50;1.30;;;;;;;10.93;62.85;99460.48;111052;1270;22679;-88
2024/04/19 09:56:25;;;;;;;6.30;1.40;;;;;;;10.95;61.72;99453.42;110734;1270;22348;-88
2024/04/19 09:59:50;;;;;;;4.50;1.30;;;;;;;10.99;62.40;99444.80;110773;1272;21865;-88
2024/04/19 10:03:18;;;;;;;3.60;1.00;;;;;;;11.14;61.91;99441.48;111068;1270;23145;-87
2024/04/19 10:06:49;;;;;;;3.40;1.00;;;;;;;11.25;60.43;99434.00;110848;1274;22716;-89
2024/04/19 10:10:22;;;;;;;7.00;1.10;;;;;;;11.29;60.36;99428.48;111004;1254;23935;31
2024/04/19 10:13:50;;;;;;;4.40;1.10;;;;;;;11.30;60.54;99421.97;110945;1270;22159;-88
2024/04/19 10:21:06;;;;;;;3.80;1.10;;;;;;;11.29;60.20;99410.90;111042;1268;22363;-89
2024/04/19 10:24:32;;;;;;;4.80;1.30;;;;;;;11.27;59.56;99405.16;111110;1268;22241;-88
2024/04/19 10:27:51;;;;;;;3.30;1.00;;;;;;;11.31;59.56;99397.27;111102;1255;22225;-88
2024/04/19 10:39:24;;;;;;;5.10;1.10;;;;;;;11.69;58.96;99371.90;111154;1256;22194;-90
2024/04/19 10:42:50;;;;;;;5.20;1.20;;;;;;;11.82;58.24;99366.27;111045;1268;22234;-88
2024/04/19 10:46:15;;;;;;;4.00;1.30;;;;;;;11.84;57.52;99356.72;111030;1270;22185;-88
2024/04/19 10:50:27;;;;;;;4.60;1.40;;;;;;;11.79;57.40;99355.45;111052;1270;23559;-88
2024/04/19 10:57:50;;;;;;;4.20;1.00;;;;;;;11.53;56.76;99343.91;111054;1267;22216;-88
2024/04/19 11:04:58;;;;;;;5.30;1.20;;;;;;;11.27;55.83;99332.80;110934;1267;22141;-89
2024/04/19 11:12:51;;;;;;;3.60;1.00;;;;;;;11.01;54.33;99344.93;110716;1270;22202;-90
2024/04/19 11:17:05;;;;;;;4.00;0.80;;;;;;;10.74;55.55;99345.35;110769;1269;22246;-88
2024/04/19 11:24:47;;;;;;;4.50;1.20;;;;;;;10.52;55.76;99326.55;110570;1270;22154;-88
2024/04/19 11:28:17;;;;;;;2.90;0.70;;;;;;;10.52;55.42;99319.70;110871;1270;22298;-89
2024/04/19 11:31:26;;;;;;;2.00;0.80;;;;;;;10.53;55.61;99310.21;110929;1271;22170;-88
2024/04/19 11:35:28;;;;;;;3.80;1.00;;;;;;;10.67;55.77;99306.05;110865;1268;22744;-88
2024/04/19 11:39:24;;;;;;;4.30;0.90;;;;;;;10.88;56.19;99297.59;110881;1268;23003;-89
2024/04/19 11:43:23;;;;;;;4.50;1.00;;;;;;;11.11;56.12;99277.33;111090;1268;22544;-87
2024/04/19 11:47:04;;;;;;;3.10;0.90;;;;;;;11.42;55.53;99267.44;110953;1273;22744;-89
2024/04/19 11:51:14;;;;;;;5.10;1.00;;;;;;;11.62;54.19;99266.66;110904;1270;22149;-89
2024/04/19 11:55:01;;;;;;;4.80;1.20;;;;;;;11.66;54.39;99262.05;110972;1273;22111;-88
2024/04/19 12:02:17;;;;;;;3.70;1.20;;;;;;;11.71;53.69;99255.55;111032;1268;22245;-88
2024/04/19 12:05:45;;;;;;;4.90;0.90;;;;;;;11.72;53.07;99249.14;110727;1275;22382;-89
2024/04/19 12:09:40;;;;;;;4.90;1.10;;;;;;;11.70;52.89;99245.02;110951;1268;22263;-89
2024/04/19 12:13:31;;;;;;;2.50;0.80;;;;;;;11.70;52.19;99247.92;110882;1275;22235;-88
2024/04/19 12:17:08;;;;;;;1.50;0.50;;;;;;;11.70;50.68;99239.30;110458;1270;23415;-88
2024/04/19 12:20:36;;;;;;;2.70;0.60;;;;;;;11.75;51.67;99235.62;110778;1268;22241;-89
2024/04/19 12:24:21;;;;;;;1.90;0.60;;;;;;;11.79;52.07;99227.16;110566;1271;22896;-88
2024/04/19 12:28:09;;;;;;;2.90;0.80;;;;;;;11.82;51.99;99224.21;110714;1270;22197;-87
2024/04/19 12:31:52;;;;;;;2.80;0.70;;;;;;;11.80;52.60;99219.64;110964;1273;22229;-88
2024/04/19 12:35:27;;;;;;;3.80;0.80;;;;;;;11.82;52.07;99213.03;110853;1271;22197;-89
2024/04/19 12:43:11;;;;;;;3.20;0.70;;;;;;;11.99;52.31;99196.82;110989;1267;22420;-87
2024/04/19 12:46:39;;;;;;;2.80;0.70;;;;;;;12.05;52.35;99193.95;111049;1258;22521;-89
2024/04/19 12:54:18;;;;;;;5.80;1.10;;;;;;;12.33;53.13;99174.07;110622;1273;23294;-88
2024/04/19 13:01:34;;;;;;;3.80;0.70;;;;;;;12.17;53.66;99168.36;110923;1267;22589;-87
2024/04/19 13:04:51;;;;;;;3.80;0.90;;;;;;;12.11;54.14;99159.58;110865;1269;22537;-90
2024/04/19 13:12:14;;;;;;;2.10;0.60;;;;;;;12.01;54.25;99143.35;112911;1254;22554;-88
2024/04/19 13:27:09;;;;;;;1.50;0.50;;;;;;;12.15;53.27;99122.27;114549;1238;22595;-89
2024/04/19 13:30:36;;;;;;;2.00;0.50;;;;;;;12.17;53.10;99114.67;114485;1237;22574;-88
2024/04/19 13:45:35;;;;;;;1.20;0.40;;;;;;;11.92;52.20;99100.47;114585;1238;22302;-89
2024/04/19 13:49:01;;;;;;;1.70;0.50;;;;;;;11.84;51.63;99100.76;114770;1239;22376;-88
2024/04/19 13:52:31;;;;;;;2.60;0.30;;;;;;;11.70;51.50;99103.86;114568;1240;22337;-88
2024/04/19 13:55:45;;;;;;;1.70;0.50;;;;;;;11.55;52.90;99099.72;113924;1244;22343;-88
2024/04/19 13:59:20;;;;;;;2.00;0.50;;;;;;;11.38;53.09;99095.70;114368;1239;22607;-90
2024/04/19 14:03:04;;;;;;;1.30;0.40;;;;;;;11.28;53.36;99091.05;114470;1238;22555;-89
2024/04/19 14:14:17;;;;;;;3.40;0.60;;;;;;;11.26;52.67;99078.47;114724;1238;22349;-88
2024/04/19 14:17:33;;;;;;;2.30;0.40;;;;;;;11.21;54.01;99075.99;114800;1238;22325;-89
2024/04/19 14:20:59;;;;;;;6.20;0.50;;;;;;;11.20;54.71;99067.00;114381;1242;22323;-88
2024/04/19 14:24:40;;;;;;;1.20;0.40;;;;;;;11.19;54.59;99065.52;114642;1239;22156;-88
2024/04/19 14:31:55;;;;;;;1.40;0.30;;;;;;;11.18;53.67;99061.31;114568;1240;22325;-89
2024/04/19 14:35:07;;;;;;;1.00;0.30;;;;;;;11.11;53.46;99051.23;114691;1239;22653;-89
2024/04/19 14:38:54;;;;;;;1.90;0.50;;;;;;;11.02;53.06;99047.64;114641;1237;22339;-88
2024/04/19 14:42:15;;;;;;;2.00;0.50;;;;;;;10.97;53.68;99043.48;114700;1238;22445;-88
2024/04/19 14:49:34;;;;;;;2.60;0.50;;;;;;;10.93;53.81;99038.02;114029;1244;22351;-89
2024/04/19 14:53:32;;;;;;;3.70;0.60;;;;;;;10.87;54.43;99035.58;114697;1240;22659;-89
2024/04/19 14:57:00;;;;;;;3.00;0.60;;;;;;;10.76;55.31;99030.83;114714;1240;22347;-88
2024/04/19 15:04:35;;;;;;;3.20;0.60;;;;;;;10.70;56.35;99022.06;114404;1240;22534;-88
2024/04/19 15:12:41;;;;;;;1.60;0.50;;;;;;;10.73;56.41;99014.39;114277;1242;22619;-89
2024/04/19 15:16:26;;;;;;;1.40;0.40;;;;;;;10.66;56.17;99004.55;114769;1239;22323;-89
2024/04/19 15:20:24;;;;;;;3.20;0.50;;;;;;;10.62;56.32;99002.93;114845;1239;22683;-88
2024/04/19 15:23:33;;;;;;;1.90;0.40;;;;;;;10.58;56.57;98998.11;114528;1240;22356;-89
2024/04/19 15:26:31;;;;;;;1.70;0.60;;;;;;;10.57;56.71;98994.96;114368;1240;22329;-88
2024/04/19 15:29:35;;;;;;;4.20;0.60;;;;;;;10.59;57.16;98993.76;114544;1240;22328;-89
2024/04/19 15:33:13;;;;;;;3.30;0.50;;;;;;;10.58;57.11;98991.32;114569;1239;22308;-89
2024/04/19 15:36:43;;;;;;;3.30;0.70;;;;;;;10.57;56.82;98988.64;114587;1241;23166;-89
2024/04/19 15:40:27;;;;;;;1.80;0.40;;;;;;;10.52;55.77;98994.61;114439;1242;22312;-88
2024/04/19 15:43:41;;;;;;;1.20;0.30;;;;;;;10.46;55.88;98993.30;114601;1240;22229;-89
2024/04/19 15:46:58;;;;;;;3.70;0.40;;;;;;;10.37;55.97;98994.83;114570;1240;22304;-90
2024/04/19 15:51:32;;;;;;;3.60;0.40;;;;;;;10.23;56.68;99001.27;114457;1239;23174;-89
2024/04/19 15:55:24;;;;;;;2.70;0.30;;;;;;;10.03;57.49;99006.30;114395;1240;23068;-89
2024/04/19 15:58:41;;;;;;;1.60;0.40;;;;;;;9.84;57.77;98998.70;113572;1240;23771;-89
2024/04/19 16:02:36;;;;;;;2.70;0.50;;;;;;;9.67;58.68;98993.70;113840;1240;22539;-90
2024/04/19 16:06:43;;;;;;;1.70;0.40;;;;;;;9.50;59.19;98992.98;114534;1240;22482;-90
2024/04/19 16:10:25;;;;;;;3.40;0.40;;;;;;;9.44;59.53;98991.88;114630;1239;22309;-90
2024/04/19 16:13:43;;;;;;;;;;;;;;;9.40;59.32;98983.79;114427;1239;22355;-88
2024/04/19 16:17:20;;;;;;;2.10;0.40;;;;;;;9.36;59.68;98980.42;114543;1240;23113;-88
2024/04/19 16:21:26;;;;;;;18.30;7.70;;;;;;;9.32;59.71;98978.54;114537;1239;23150;-88
2024/04/19 16:25:33;;;;;;;3.80;0.90;;;;;;;9.30;60.28;98975.75;114591;1240;22308;-90
2024/04/19 16:29:46;;;;;;;2.70;0.80;;;;;;;9.26;61.60;98967.14;114085;1240;22563;-89
2024/04/19 16:33:27;;;;;;;3.10;0.50;;;;;;;9.16;62.01;98956.15;114217;1241;22559;-88
2024/04/19 16:37:02;;;;;;;;;;;;;;;9.07;62.38;98955.11;114362;1240;23466;-89
2024/04/19 16:40:46;;;;;;;2.40;0.60;;;;;;;9.04;62.92;98947.61;114265;1241;22833;-88
2024/04/19 16:44:49;;;;;;;2.60;0.50;;;;;;;8.95;63.04;98947.52;114496;1240;22284;-90
2024/04/19 16:48:44;;;;;;;2.70;0.20;;;;;;;8.88;63.18;98946.82;114446;1240;22296;-89
2024/04/19 16:52:20;;;;;;;4.90;0.50;;;;;;;8.88;63.30;98943.48;114427;1241;22293;-90
2024/04/19 16:55:56;;;;;;;2.50;0.40;;;;;;;8.84;63.73;98946.20;114440;1241;22930;-89
2024/04/19 16:59:33;;;;;;;4.00;0.70;;;;;;;8.81;64.62;98945.66;114475;1240;23110;-88
2024/04/19 17:03:29;;;;;;;1.90;0.70;;;;;;;8.77;65.32;98947.06;114357;1241;22341;-89
2024/04/19 17:07:41;;;;;;;2.50;0.50;;;;;;;8.72;65.63;98949.77;114402;1241;22965;-90
2024/04/19 17:11:35;;;;;;;3.00;0.70;;;;;;;8.68;65.99;98949.55;114369;1241;22317;-89
2024/04/19 17:14:36;;;;;;;1.60;0.40;;;;;;;8.65;66.65;98947.01;114307;1240;23118;-89
2024/04/19 17:18:23;;;;;;;3.80;0.70;;;;;;;8.60;66.93;98950.51;114130;1240;22304;-89
2024/04/19 17:21:57;;;;;;;2.20;0.60;;;;;;;8.58;67.20;98948.94;114341;1240;22311;-89
2024/04/19 17:24:57;;;;;;;3.10;0.80;;;;;;;8.57;67.64;98947.95;114381;1241;22172;-89
2024/04/19 17:28:32;;;;;;;3.60;0.70;;;;;;;8.51;67.75;98945.55;114270;1240;22962;-88
2024/04/19 17:31:30;;;;;;;4.60;0.70;;;;;;;8.48;68.24;98942.34;114331;1240;22715;-89
2024/04/19 17:35:01;;;;;;;2.80;0.80;;;;;;;8.46;68.33;98937.46;114417;1241;23030;-89
2024/04/19 17:38:24;;;;;;;3.40;0.80;;;;;;;8.42;68.58;98939.00;114475;1240;22310;-89
2024/04/19 17:42:21;;;;;;;2.20;0.50;;;;;;;8.36;68.70;98941.05;114430;1240;22123;-88
2024/04/19 17:46:26;;;;;;;3.50;0.50;;;;;;;8.32;68.95;98942.94;114459;1240;22262;-89
2024/04/19 17:50:03;;;;;;;2.20;0.50;;;;;;;8.32;68.97;98944.67;114339;1240;22321;-89
2024/04/19 17:53:19;;;;;;;2.10;0.60;;;;;;;8.30;68.94;98943.04;114417;1241;22291;-89
2024/04/19 17:56:22;;;;;;;1.90;0.40;;;;;;;8.28;69.14;98942.77;114346;1241;22294;-89
2024/04/19 18:00:33;;;;;;;1.40;0.30;;;;;;;8.26;69.19;98944.30;114390;1241;22315;-89
2024/04/19 18:04:36;;;;;;;2.10;0.40;;;;;;;8.19;68.91;98939.23;114406;1241;22291;-89
2024/04/19 18:08:53;;;;;;;1.50;0.30;;;;;;;8.14;69.02;98938.63;113789;1241;22537;-89
2024/04/19 18:12:35;;;;;;;1.40;0.20;;;;;;;8.12;68.99;98939.48;114402;1241;22241;-89
2024/04/19 18:15:53;;;;;;;1.60;0.30;;;;;;;8.10;69.03;98936.48;114379;1240;22266;-89
2024/04/19 18:18:43;;;;;;;2.30;0.60;;;;;;;8.09;68.99;98942.02;114147;1240;22712;-79
2024/04/19 18:21:33;;;;;;;2.50;0.50;;;;;;;8.09;69.24;98942.17;114151;1240;22269;-80
2024/04/19 18:24:26;;;;;;;5.20;0.60;;;;;;;8.09;69.31;98938.09;114161;1240;22248;-81
2024/04/19 18:27:41;;;;;;;8.10;1.70;;;;;;;8.10;69.47;98942.35;114039;1240;22343;-81
2024/04/19 18:30:32;;;;;;;5.60;1.20;;;;;;;8.10;69.59;98939.11;114162;1240;22189;-81
2024/04/19 18:33:22;;;;;;;4.80;0.80;;;;;;;8.11;69.72;98940.69;113294;1241;22501;-80
2024/04/19 18:36:12;;;;;;;3.40;0.80;;;;;;;8.10;69.79;98947.20;111891;1241;22624;-79
2024/04/19 18:39:03;;;;;;;5.70;1.00;;;;;;;8.07;69.95;98953.89;112330;1241;22556;-80
2024/04/19 18:41:53;;;;;;;5.90;1.40;;;;;;;8.06;70.00;98950.14;111747;1232;24599;-79
2024/04/19 18:44:44;;;;;;;4.70;1.10;;;;;;;8.04;70.26;98953.92;112335;1241;22593;-82
2024/04/19 18:47:34;;;;;;;4.50;1.00;;;;;;;8.00;70.23;98951.52;112243;1240;23282;-80
2024/04/19 18:50:24;;;;;;;5.10;1.20;;;;;;;7.96;70.38;98957.64;111886;1240;24169;-80
2024/04/19 18:53:14;;;;;;;4.20;0.80;;;;;;;7.94;70.48;98958.88;112188;1228;22960;-80
2024/04/19 18:56:06;;;;;;;4.50;0.90;;;;;;;7.91;70.57;98961.33;112535;1240;22633;-80
2024/04/19 18:58:57;;;;;;;2.90;0.70;;;;;;;7.87;70.69;98962.05;112106;1240;22548;-80
2024/04/19 19:01:47;;;;;;;4.00;0.60;;;;;;;7.84;70.71;98962.48;112219;1240;25319;-79
2024/04/19 19:04:38;;;;;;;3.60;0.60;;;;;;;7.83;70.81;98966.01;112518;1240;22604;-79
2024/04/19 19:07:28;;;;;;;2.40;0.50;;;;;;;7.82;70.97;98964.58;112070;1240;22501;-82
2024/04/19 19:10:19;;;;;;;2.70;0.60;;;;;;;7.76;71.07;98965.34;112373;1240;25370;-82
2024/04/19 19:13:09;;;;;;;2.70;0.60;;;;;;;7.73;71.14;98966.62;112227;1241;24296;-81
2024/04/19 19:16:00;;;;;;;3.40;0.50;;;;;;;7.68;71.25;98961.51;113220;1241;22629;-81
2024/04/19 19:18:50;;;;;;;2.80;0.60;;;;;;;7.62;71.42;98967.82;113178;1241;24268;-83
2024/04/19 19:21:41;;;;;;;3.80;0.50;;;;;;;7.59;71.50;98967.02;113009;1240;23766;-80
2024/04/19 19:24:31;;;;;;;3.30;0.50;;;;;;;7.57;71.59;98970.34;113018;1240;22675;-81
2024/04/19 19:27:21;;;;;;;2.20;0.40;;;;;;;7.55;71.63;98972.14;113160;1238;22558;-80
2024/04/19 19:30:12;;;;;;;2.50;0.60;;;;;;;7.54;71.80;98973.58;113064;1238;22614;-81
2024/04/19 19:33:02;;;;;;;;;;;;;;;7.55;72.00;98975.33;113012;1240;22583;-79
2024/04/19 19:35:59;;;;;;;4.40;0.60;;;;;;;7.53;72.04;98973.57;113033;1240;22645;-79
2024/04/19 19:38:50;;;;;;;2.60;0.70;;;;;;;7.52;72.43;98974.67;113082;1240;22578;-80
2024/04/19 19:41:41;;;;;;;4.90;0.70;;;;;;;7.47;72.51;98972.30;112944;1233;24256;-79
2024/04/19 19:44:33;;;;;;;3.40;0.80;;;;;;;7.45;72.53;98971.88;113048;1240;22545;-81
2024/04/19 19:47:24;;;;;;;4.20;0.70;;;;;;;7.44;72.55;98972.63;112950;1240;22684;-81
2024/04/19 19:50:13;;;;;;;;;;;;;;;7.43;72.54;98970.34;113016;1240;22541;-81
2024/04/19 19:53:03;;;;;;;3.20;0.50;;;;;;;7.42;72.59;98969.97;112688;1240;22550;-86
2024/04/19 19:55:54;;;;;;;2.50;0.50;;;;;;;7.43;72.74;98972.61;112698;1240;23777;-81
2024/04/19 19:58:45;;;;;;;2.60;0.50;;;;;;;7.41;72.83;98976.02;112492;1240;23007;-82
2024/04/19 20:08:07;;;;;;;4.10;0.50;;;;;;;7.44;73.00;98979.44;111444;1247;22558;-79
2024/04/19 20:10:58;;;;;;;2.60;0.40;;;;;;;7.46;73.14;98974.96;112028;1240;23360;-79
2024/04/19 20:13:48;;;;;;;2.10;0.40;;;;;;;7.45;73.24;98974.45;112074;1240;22517;-80
2024/04/19 20:16:37;;;;;;;;;;;;;;;7.45;73.32;98976.48;111376;1240;24336;-79
2024/04/19 20:19:28;;;;;;;2.70;0.40;;;;;;;7.46;73.44;98975.48;111710;1240;22534;-79
2024/04/19 20:22:20;;;;;;;2.80;0.60;;;;;;;7.47;73.41;98975.33;112294;1240;22654;-82
2024/04/19 20:25:11;;;;;;;1.80;0.40;;;;;;;7.49;73.57;98976.72;111954;1240;22572;-79
2024/04/19 20:28:02;;;;;;;2.10;0.50;;;;;;;7.54;73.67;98976.77;111804;1240;22556;-80
2024/04/19 20:30:53;;;;;;;3.40;0.60;;;;;;;7.58;73.80;98973.98;111743;1240;22565;-79
2024/04/19 20:33:44;;;;;;;4.10;0.60;;;;;;;7.60;74.14;98973.39;111065;1237;22558;-79
2024/04/19 20:36:34;;;;;;;3.30;0.80;;;;;;;7.62;74.13;98968.33;111971;1240;22626;-78
2024/04/19 20:39:25;;;;;;;9.90;1.10;;;;;;;7.62;74.15;98969.63;111200;1240;22641;-78
2024/04/19 20:42:14;;;;;;;;;;;;;;;7.62;74.11;98973.11;111164;1236;22572;-77
2024/04/19 20:45:05;;;;;;;5.90;1.50;;;;;;;7.60;74.23;98974.16;111171;1240;25377;-79
2024/04/19 20:47:56;;;;;;;7.50;1.20;;;;;;;7.58;74.28;98973.33;112082;1240;22529;-79
2024/04/19 20:50:50;;;;;;;5.00;0.90;;;;;;;7.58;74.31;98969.95;111879;1240;24459;-80
2024/04/19 20:53:40;;;;;;;4.50;1.10;;;;;;;7.53;74.16;98968.73;111936;1240;25240;-79
2024/04/19 20:56:30;;;;;;;4.40;1.00;;;;;;;7.48;74.33;98968.93;111264;1240;22613;-78
2024/04/19 20:59:21;;;;;;;4.40;0.90;;;;;;;7.45;74.48;98965.88;111859;1240;22528;-79
2024/04/19 21:02:11;;;;;;;5.70;1.10;;;;;;;7.47;74.48;98965.59;111790;1240;22592;-79
2024/04/19 21:05:00;;;;;;;;;;;;;;;7.46;74.47;98963.05;111972;1240;22597;-79
2024/04/19 21:07:53;;;;;;;5.20;0.90;;;;;;;7.42;74.56;98965.89;111673;1240;24197;-78
2024/04/19 21:10:43;;;;;;;5.50;1.00;;;;;;;7.39;74.66;98965.30;114189;1237;22726;-78
2024/04/19 21:13:34;;;;;;;5.60;1.30;;;;;;;7.37;74.62;98971.23;114181;1240;22263;-79
2024/04/19 21:16:24;;;;;;;5.50;1.00;;;;;;;7.37;74.66;98965.44;114168;1240;22288;-80
2024/04/19 21:19:15;;;;;;;6.10;1.00;;;;;;;7.34;74.80;98972.46;113976;1240;22262;-82
2024/04/19 21:22:05;;;;;;;5.90;1.10;;;;;;;7.32;74.90;98973.00;114191;1237;22343;-83
2024/04/19 21:24:55;;;;;;;5.90;1.10;;;;;;;7.30;74.97;98970.55;114191;1240;22317;-86
2024/04/19 21:27:44;;;;;;;;;;;;;;;7.30;74.94;98973.23;114187;1240;23228;-81
2024/04/19 21:30:34;;;;;;;4.90;1.00;;;;;;;7.29;74.97;98975.63;114177;1240;23043;-83
2024/04/19 21:33:23;;;;;;;;;;;;;;;7.27;74.99;98975.32;114195;1241;22967;-81
2024/04/19 21:36:13;;;;;;;5.10;0.90;;;;;;;7.28;75.20;98978.45;114177;1240;22949;-82
2024/04/19 21:39:04;;;;;;;4.10;1.00;;;;;;;7.28;75.21;98977.59;114187;1241;22333;-81
2024/04/19 21:41:54;;;;;;;6.20;1.10;;;;;;;7.26;75.36;98978.02;114212;1241;22312;-81
2024/04/19 21:44:48;;;;;;;4.50;0.90;;;;;;;7.25;75.40;98978.88;114083;1240;22161;-81
2024/04/19 21:47:38;;;;;;;4.90;1.10;;;;;;;7.27;75.55;98977.14;114203;1240;22320;-84
2024/04/19 21:50:29;;;;;;;5.10;1.20;;;;;;;7.27;75.58;98975.71;114186;1241;22190;-80
2024/04/19 21:53:19;;;;;;;6.80;1.20;;;;;;;7.25;75.44;98975.89;114174;1238;22171;-81
2024/04/19 21:56:10;;;;;;;5.60;1.00;;;;;;;7.23;75.54;98975.91;114027;1241;22170;-82
2024/04/19 21:59:01;;;;;;;4.80;1.00;;;;;;;7.18;75.44;98975.61;114185;1241;22329;-84
2024/04/19 22:01:52;;;;;;;5.10;1.00;;;;;;;7.15;75.56;98976.13;114154;1241;22262;-81
2024/04/19 22:04:47;;;;;;;5.40;1.00;;;;;;;7.11;75.62;98977.23;114159;1240;22247;-81
2024/04/19 22:07:37;;;;;;;5.00;0.80;;;;;;;7.09;75.61;98976.71;114178;1241;22204;-83
2024/04/19 22:10:27;;;;;;;4.10;0.90;;;;;;;7.09;75.66;98977.66;114149;1240;22180;-82
2024/04/19 22:13:19;;;;;;;5.10;1.00;;;;;;;7.06;75.61;98977.77;114170;1240;22355;-82
2024/04/19 22:16:10;;;;;;;5.00;1.00;;;;;;;7.02;75.57;98977.86;114173;1240;22332;-83
2024/04/19 22:19:00;;;;;;;5.10;1.00;;;;;;;7.00;75.66;98977.80;114154;1240;22268;-82
2024/04/19 22:21:49;;;;;;;;;;;;;;;7.00;75.55;98979.58;114206;1241;22959;-81
2024/04/19 22:24:40;;;;;;;3.90;0.80;;;;;;;6.95;75.69;98981.77;114190;1241;22246;-81
2024/04/19 22:27:30;;;;;;;6.70;1.10;;;;;;;6.93;75.61;98978.77;114192;1241;23178;-82
2024/04/19 22:30:21;;;;;;;4.80;1.10;;;;;;;6.87;75.80;98976.67;114202;1240;22191;-80
2024/04/19 22:33:11;;;;;;;4.10;1.10;;;;;;;6.83;75.85;98974.61;114188;1240;22189;-82
2024/04/19 22:36:06;;;;;;;5.20;1.40;;;;;;;6.80;75.96;98977.83;114208;1240;22324;-81
2024/04/19 22:38:56;;;;;;;5.80;1.20;;;;;;;6.75;76.16;98978.48;114169;1240;22367;-80
2024/04/19 22:41:46;;;;;;;5.20;1.00;;;;;;;6.71;76.26;98976.99;114173;1240;22841;-83
2024/04/19 22:44:36;;;;;;;4.00;0.90;;;;;;;6.68;76.35;98975.81;114209;1240;22887;-83
2024/04/19 22:47:27;;;;;;;;;;;;;;;6.69;76.53;98978.54;114203;1240;22235;-80
2024/04/19 22:50:17;;;;;;;3.90;1.10;;;;;;;6.66;76.50;98979.63;114179;1241;22256;-80
2024/04/19 22:53:09;;;;;;;4.70;1.00;;;;;;;6.65;76.63;98982.31;114167;1240;22187;-82
2024/04/19 22:55:59;;;;;;;4.80;1.10;;;;;;;6.66;76.76;98982.13;114182;1240;22896;-82
2024/04/19 22:58:49;;;;;;;;;;;;;;;6.67;76.75;98981.98;114186;1240;22265;-81
2024/04/19 23:01:39;;;;;;;3.60;0.80;;;;;;;6.66;76.86;98982.58;114197;1240;22312;-82
2024/04/19 23:04:28;;;;;;;;;;;;;;;6.66;76.92;98984.75;114085;1240;22250;-84
2024/04/19 23:07:18;;;;;;;3.50;0.90;;;;;;;6.65;77.03;98985.44;114184;1240;23650;-82
2024/04/19 23:10:10;;;;;;;4.10;1.00;;;;;;;6.64;77.06;98980.23;114217;1240;22264;-83
2024/04/19 23:13:01;;;;;;;3.60;0.90;;;;;;;6.63;77.17;98981.08;114216;1240;23036;-81
2024/04/19 23:15:51;;;;;;;4.00;0.90;;;;;;;6.63;77.26;98978.31;114188;1240;22261;-80
2024/04/19 23:18:42;;;;;;;4.90;1.00;;;;;;;6.61;77.37;98978.38;114185;1240;22324;-81
2024/04/19 23:21:33;;;;;;;5.60;1.10;;;;;;;6.58;77.55;98976.87;114209;1240;22266;-83
2024/04/19 23:24:24;;;;;;;4.80;1.00;;;;;;;6.61;77.71;98977.02;114207;1240;22309;-82
2024/04/19 23:27:14;;;;;;;3.10;0.70;;;;;;;6.59;77.66;98976.64;114208;1240;22607;-84
2024/04/19 23:30:06;;;;;;;3.40;0.80;;;;;;;6.60;77.73;98972.55;112889;1240;22585;-80
2024/04/19 23:32:56;;;;;;;4.50;1.00;;;;;;;6.61;77.86;98971.11;114196;1240;22255;-82
2024/04/19 23:35:46;;;;;;;4.90;0.90;;;;;;;6.62;77.81;98972.79;111715;1240;22572;-82
2024/04/19 23:38:38;;;;;;;5.50;0.90;;;;;;;6.60;77.82;98966.70;111862;1240;23291;-82
2024/04/19 23:41:28;;;;;;;3.70;0.90;;;;;;;6.60;77.79;98971.19;111878;1240;22628;-80
2024/04/19 23:44:19;;;;;;;3.70;1.10;;;;;;;6.60;77.90;98967.23;111510;1240;22501;-80
2024/04/19 23:47:10;;;;;;;3.60;0.90;;;;;;;6.59;77.91;98968.41;111736;1240;22524;-80
2024/04/19 23:50:01;;;;;;;3.50;1.00;;;;;;;6.57;78.03;98965.76;111702;1240;23857;-80
2024/04/19 23:52:50;;;;;;;;;;;;;;;6.57;78.13;98969.18;111634;1240;23998;-81
2024/04/19 23:55:41;;;;;;;3.00;0.90;;;;;;;6.56;78.19;98968.42;111818;1240;24045;-80
2024/04/19 23:58:32;;;;;;;3.00;0.90;;;;;;;6.55;78.25;98969.98;111667;1240;22497;-80
